Time;durP1;ratioP1;P1;durP2;ratioP2;P2;SDS_P1;SDS_P2;PMS_P1;PMS_P2;Temp;Humidity;BMP_temperature;BMP_pressure;BME280_temperature;BME280_humidity;BME280_pressure;Samples;Min_cycle;Max_cycle;Signal;HPM_P1;HPM_P2
2021/05/03 00:02:56;;;;;;;7.87;6.73;;;;;;;5.01;73.31;98510.26;2281627;78;21162;-80
2021/05/03 00:05:57;;;;;;;9.30;6.73;;;;;;;5.01;73.52;98521.91;2281530;77;21111;-81
2021/05/03 00:08:58;;;;;;;10.37;6.73;;;;;;;5.01;73.55;98520.61;2278395;78;21086;-80
2021/05/03 00:11:59;;;;;;;8.43;6.50;;;;;;;5.02;73.50;98517.61;2281972;78;21099;-80
2021/05/03 00:15:00;;;;;;;7.93;6.60;;;;;;;5.03;73.58;98517.65;2262126;78;21154;-78
2021/05/03 00:18:01;;;;;;;8.70;6.07;;;;;;;5.02;73.61;98518.48;2251419;78;21071;-80
2021/05/03 00:21:02;;;;;;;9.27;7.00;;;;;;;5.03;73.89;98525.41;2251740;78;21138;-80
2021/05/03 00:24:03;;;;;;;10.77;7.37;;;;;;;5.04;73.91;98529.75;2251231;78;21147;-80
2021/05/03 00:27:04;;;;;;;13.00;7.63;;;;;;;5.06;73.77;98531.96;2251294;79;21226;-80
2021/05/03 00:30:05;;;;;;;9.57;6.90;;;;;;;5.08;73.93;98526.41;2251571;79;21114;-79
2021/05/03 00:33:06;;;;;;;7.90;6.30;;;;;;;5.11;73.86;98535.97;2251631;79;21110;-80
2021/05/03 00:36:08;;;;;;;9.47;6.73;;;;;;;5.11;73.91;98549.78;2251667;78;21094;-81
2021/05/03 00:39:09;;;;;;;8.87;6.53;;;;;;;5.13;74.13;98552.42;2251948;79;21118;-80
2021/05/03 00:42:10;;;;;;;6.53;5.40;;;;;;;5.14;73.94;98559.34;2251531;79;21079;-80
2021/05/03 00:45:11;;;;;;;9.07;6.57;;;;;;;5.16;73.79;98551.20;2252418;79;21103;-82
2021/05/03 00:48:12;;;;;;;6.80;5.87;;;;;;;5.15;73.84;98555.05;2252106;79;21106;-81
2021/05/03 00:51:13;;;;;;;6.83;6.13;;;;;;;5.12;73.47;98558.01;2252201;79;21121;-80
2021/05/03 00:54:14;;;;;;;7.67;6.27;;;;;;;5.10;73.55;98561.38;2251541;78;21106;-80
2021/05/03 00:57:15;;;;;;;10.80;6.80;;;;;;;5.10;73.86;98567.44;2252148;78;21122;-81
2021/05/03 01:00:17;;;;;;;6.33;5.60;;;;;;;5.11;73.62;98564.02;2252073;79;21090;-80
2021/05/03 01:03:18;;;;;;;8.03;6.13;;;;;;;5.17;73.70;98555.97;2252517;79;21107;-81
2021/05/03 01:06:19;;;;;;;9.67;6.23;;;;;;;5.18;73.70;98561.60;2252379;79;21094;-80
2021/05/03 01:09:20;;;;;;;7.13;5.60;;;;;;;5.18;73.53;98566.78;2252016;79;21082;-81
2021/05/03 01:12:21;;;;;;;7.47;6.10;;;;;;;5.17;73.44;98567.19;2252604;78;21357;-81
2021/05/03 01:15:25;;;;;;;8.03;6.37;;;;;;;5.19;73.24;98576.30;2258730;78;21115;-81
2021/05/03 01:18:29;;;;;;;10.05;6.42;;;;;;;5.25;73.14;98573.91;2263536;77;21091;-80
2021/05/03 01:21:29;;;;;;;6.87;5.77;;;;;;;5.27;72.84;98574.83;2263022;78;21236;-80
2021/05/03 01:24:30;;;;;;;9.13;7.23;;;;;;;5.23;72.92;98573.88;2260411;78;21250;-82
2021/05/03 01:27:31;;;;;;;9.33;7.30;;;;;;;5.21;72.98;98582.01;2261049;78;21111;-80
2021/05/03 01:30:32;;;;;;;8.27;6.47;;;;;;;5.24;73.07;98576.05;2260255;78;21103;-81
2021/05/03 01:33:33;;;;;;;11.93;7.90;;;;;;;5.29;73.40;98583.52;2260781;78;21103;-80
2021/05/03 01:36:34;;;;;;;9.13;7.13;;;;;;;5.29;73.40;98583.52;2265927;78;21059;-80
2021/05/03 01:39:35;;;;;;;16.00;7.70;;;;;;;5.32;73.20;98586.20;2263786;78;21099;-82
2021/05/03 01:42:37;;;;;;;13.10;7.53;;;;;;;5.32;73.37;98581.89;2263447;78;21175;-82
2021/05/03 01:45:38;;;;;;;11.87;7.67;;;;;;;5.34;73.27;98582.81;2260284;78;21133;-81
2021/05/03 01:48:39;;;;;;;9.53;7.43;;;;;;;5.33;73.26;98585.36;2261055;78;21074;-80
2021/05/03 01:51:40;;;;;;;9.23;7.07;;;;;;;5.37;73.32;98579.44;2261324;78;21134;-80
2021/05/03 01:54:41;;;;;;;9.70;6.43;;;;;;;5.35;73.36;98584.98;2260724;78;21387;-80
2021/05/03 01:57:42;;;;;;;6.57;5.97;;;;;;;5.35;73.31;98590.16;2261015;78;21098;-80
2021/05/03 02:00:43;;;;;;;9.50;6.40;;;;;;;5.32;73.31;98590.08;2260256;78;21099;-80
2021/05/03 02:03:44;;;;;;;9.13;5.90;;;;;;;5.28;73.21;98589.11;2261989;78;21158;-82
2021/05/03 02:06:45;;;;;;;6.67;6.00;;;;;;;5.24;73.58;98596.75;2268441;77;21107;-80
2021/05/03 02:09:46;;;;;;;17.47;7.07;;;;;;;5.22;73.67;98595.82;2268201;78;21110;-80
2021/05/03 02:12:47;;;;;;;7.20;6.10;;;;;;;5.20;73.57;98590.98;2265490;77;21388;-81
2021/05/03 02:15:48;;;;;;;6.73;6.03;;;;;;;5.19;73.66;98594.41;2272833;78;21107;-81
2021/05/03 02:18:49;;;;;;;6.47;5.40;;;;;;;5.17;73.55;98592.19;2275941;77;21399;-80
2021/05/03 02:21:50;;;;;;;6.83;5.83;;;;;;;5.15;73.64;98601.62;2275822;77;21488;-81
2021/05/03 02:24:52;;;;;;;9.07;5.83;;;;;;;5.10;73.51;98608.83;2275149;78;21412;-82
2021/05/03 02:27:53;;;;;;;9.17;6.23;;;;;;;5.06;73.51;98606.98;2276030;78;21214;-80
2021/05/03 02:30:54;;;;;;;7.50;5.50;;;;;;;5.02;73.38;98614.20;2274757;77;21095;-80
2021/05/03 02:33:55;;;;;;;9.13;5.37;;;;;;;4.99;73.55;98615.39;2275263;78;21110;-79
2021/05/03 02:36:56;;;;;;;6.43;5.83;;;;;;;4.96;73.26;98614.02;2275902;78;21051;-80
2021/05/03 02:39:57;;;;;;;6.23;5.27;;;;;;;4.94;72.87;98624.73;2274969;77;21109;-80
2021/05/03 02:42:58;;;;;;;9.27;5.03;;;;;;;4.91;73.03;98631.10;2275804;77;21139;-80
2021/05/03 02:45:59;;;;;;;6.70;5.30;;;;;;;4.91;72.98;98636.27;2276393;78;21103;-81
2021/05/03 02:49:00;;;;;;;5.83;5.27;;;;;;;4.91;72.84;98637.56;2274804;78;21429;-80
2021/05/03 02:52:01;;;;;;;6.80;5.53;;;;;;;4.88;72.74;98636.18;2276142;77;21114;-79
2021/05/03 02:55:02;;;;;;;6.27;5.10;;;;;;;4.88;72.81;98637.47;2276663;77;21230;-80
2021/05/03 02:58:03;;;;;;;5.57;4.87;;;;;;;4.90;72.92;98634.94;2275831;77;21114;-79
2021/05/03 03:01:05;;;;;;;6.80;5.50;;;;;;;4.91;72.93;98641.45;2275077;78;21102;-80
2021/05/03 03:04:06;;;;;;;7.13;5.93;;;;;;;4.93;73.01;98641.08;2275471;78;21404;-81
2021/05/03 03:07:07;;;;;;;7.80;6.57;;;;;;;4.96;73.29;98643.76;2274719;77;21115;-82
2021/05/03 03:10:08;;;;;;;6.30;5.57;;;;;;;4.94;73.42;98641.54;2275291;77;21103;-80
2021/05/03 03:13:09;;;;;;;7.00;5.80;;;;;;;4.94;73.17;98635.08;2274773;77;21349;-80
2021/05/03 03:16:10;;;;;;;6.83;6.13;;;;;;;5.00;73.44;98638.27;2275997;78;21436;-80
2021/05/03 03:19:11;;;;;;;7.93;5.93;;;;;;;5.06;73.44;98641.03;2275064;77;21122;-81
2021/05/03 03:22:12;;;;;;;8.57;6.30;;;;;;;5.08;73.46;98641.54;2275115;78;21265;-80
2021/05/03 03:25:13;;;;;;;8.57;6.57;;;;;;;5.10;73.48;98648.94;2274215;77;21102;-80
2021/05/03 03:28:14;;;;;;;7.97;6.23;;;;;;;5.13;73.59;98652.03;2275536;77;21107;-80
2021/05/03 03:31:15;;;;;;;8.80;6.60;;;;;;;5.15;73.45;98649.07;2275234;77;21098;-79
2021/05/03 03:34:16;;;;;;;9.93;6.30;;;;;;;5.17;73.75;98656.88;2276327;77;21110;-80
2021/05/03 03:37:18;;;;;;;12.60;7.80;;;;;;;5.18;73.55;98657.34;2276061;77;21094;-81
2021/05/03 03:40:19;;;;;;;9.67;7.50;;;;;;;5.22;73.66;98662.69;2276232;77;21428;-80
2021/05/03 03:43:20;;;;;;;9.37;6.77;;;;;;;5.25;73.45;98663.20;2275492;77;21142;-80
2021/05/03 03:46:21;;;;;;;9.30;6.90;;;;;;;5.32;73.41;98663.84;2275294;77;21070;-81
2021/05/03 03:49:22;;;;;;;7.57;6.10;;;;;;;5.33;73.10;98666.47;2275775;77;21115;-82
2021/05/03 03:52:24;;;;;;;9.37;5.93;;;;;;;5.37;73.02;98666.14;2276430;78;21134;-81
2021/05/03 03:55:25;;;;;;;8.00;6.00;;;;;;;5.34;72.99;98670.81;2275122;78;21074;-81
2021/05/03 03:58:26;;;;;;;8.93;6.67;;;;;;;5.34;72.84;98671.23;2275052;77;21102;-80
2021/05/03 04:01:30;;;;;;;7.63;6.00;;;;;;;5.30;72.82;98678.44;2275602;77;21103;-79
2021/05/03 04:04:31;;;;;;;8.17;6.23;;;;;;;5.27;72.97;98681.81;2275705;77;21151;-80
2021/05/03 04:07:37;;;;;;;7.00;6.13;;;;;;;5.27;73.00;98677.06;2274838;77;21094;-81
2021/05/03 04:10:46;;;;;;;8.43;5.40;;;;;;;5.29;73.12;98679.28;2275096;78;21118;-80
2021/05/03 04:23:49;;;;;;;6.80;5.13;;;;;;;5.40;72.72;98697.30;2275493;77;21150;-79
2021/05/03 04:26:49;;;;;;;10.17;5.60;;;;;;;5.39;72.72;98705.48;2272667;78;21220;-80
2021/05/03 04:29:50;;;;;;;5.67;5.03;;;;;;;5.35;72.83;98707.52;2275046;77;21102;-80
2021/05/03 04:32:51;;;;;;;5.97;4.47;;;;;;;5.28;72.91;98703.41;2275666;77;21095;-79
2021/05/03 04:35:52;;;;;;;5.30;4.67;;;;;;;5.18;73.15;98722.03;2273787;78;21094;-79
2021/05/03 04:38:53;;;;;;;7.10;5.00;;;;;;;5.07;73.37;98719.98;2274487;78;21107;-79
2021/05/03 04:41:54;;;;;;;7.83;5.23;;;;;;;4.99;73.43;98719.28;2275180;77;21106;-79
2021/05/03 04:44:55;;;;;;;8.33;4.80;;;;;;;4.90;73.76;98730.63;2274796;78;21118;-80
2021/05/03 04:47:56;;;;;;;7.03;5.73;;;;;;;4.83;74.48;98733.44;2273720;77;21401;-79
2021/05/03 04:50:57;;;;;;;5.43;4.93;;;;;;;4.79;74.62;98736.34;2275715;77;21131;-80
2021/05/03 04:53:59;;;;;;;7.47;5.00;;;;;;;4.78;74.71;98741.05;2274419;78;21110;-80
2021/05/03 04:57:00;;;;;;;8.50;6.87;;;;;;;4.76;75.27;98742.70;2273584;77;21222;-80
2021/05/03 05:00:01;;;;;;;10.30;7.50;;;;;;;4.74;75.50;98746.06;2275073;77;21107;-81
2021/05/03 05:03:02;;;;;;;7.63;5.83;;;;;;;4.73;75.25;98743.89;2275646;77;21147;-81
2021/05/03 05:06:03;;;;;;;6.27;5.67;;;;;;;4.75;75.38;98751.28;2274164;77;21106;-83
2021/05/03 05:09:04;;;;;;;7.77;4.63;;;;;;;4.73;74.76;98750.77;2274794;78;21325;-82
2021/05/03 05:12:05;;;;;;;6.40;4.07;;;;;;;4.72;74.69;98753.77;2275418;77;21110;-82
2021/05/03 05:15:06;;;;;;;5.30;3.67;;;;;;;4.68;74.28;98756.20;2274605;77;21135;-85
2021/05/03 05:18:07;;;;;;;5.13;4.40;;;;;;;4.60;74.09;98761.12;2273908;77;21063;-83
2021/05/03 05:21:08;;;;;;;4.90;4.27;;;;;;;4.62;74.27;98767.63;2276741;77;21143;-81
2021/05/03 05:24:09;;;;;;;33.60;22.83;;;;;;;4.61;74.29;98764.16;2275484;77;21135;-80
2021/05/03 05:27:10;;;;;;;53.73;38.43;;;;;;;5.90;82.47;98749.30;2275534;78;21087;-82
2021/05/03 05:30:12;;;;;;;45.90;33.83;;;;;;;8.26;82.07;98747.29;2275464;77;21114;-81
2021/05/03 05:33:13;;;;;;;11.70;9.03;;;;;;;10.16;75.04;98745.58;2274950;77;21118;-80
2021/05/03 05:36:14;;;;;;;6.27;4.97;;;;;;;10.56;61.39;98750.00;2274187;77;21075;-80
2021/05/03 05:39:15;;;;;;;4.87;4.40;;;;;;;8.85;63.19;98764.48;2273843;77;21126;-81
2021/05/03 05:42:16;;;;;;;4.50;3.80;;;;;;;7.76;64.39;98767.44;2275053;77;21098;-84
2021/05/03 05:45:17;;;;;;;12.60;7.53;;;;;;;6.94;66.07;98767.70;2274834;78;21214;-80
2021/05/03 05:48:18;;;;;;;8.17;6.37;;;;;;;6.37;67.54;98776.57;2275609;77;21127;-82
2021/05/03 05:51:19;;;;;;;15.33;10.40;;;;;;;5.95;69.18;98776.63;2274612;78;21135;-81
2021/05/03 05:54:20;;;;;;;10.53;7.13;;;;;;;5.95;69.18;98776.63;2275367;77;21112;-83
2021/05/03 05:57:21;;;;;;;5.93;5.13;;;;;;;5.96;69.67;98774.09;2275097;77;21095;-82
2021/05/03 06:00:23;;;;;;;6.47;5.43;;;;;;;5.85;70.01;98775.45;2273319;78;21106;-80
2021/05/03 06:03:24;;;;;;;5.20;4.23;;;;;;;5.80;70.31;98782.21;2273470;78;21311;-82
2021/05/03 06:06:26;;;;;;;5.57;3.70;;;;;;;5.69;70.95;98783.61;2273370;78;21244;-81
2021/05/03 06:09:27;;;;;;;4.37;3.87;;;;;;;5.49;71.21;98786.88;2274818;77;21083;-81
2021/05/03 06:12:28;;;;;;;4.93;3.40;;;;;;;5.33;72.22;98795.01;2274127;78;21412;-81
2021/05/03 06:15:29;;;;;;;35.07;28.07;;;;;;;5.22;72.47;98797.67;2268722;78;21134;-78
2021/05/03 06:18:30;;;;;;;113.57;84.00;;;;;;;5.51;77.79;98796.87;2246204;79;21098;-78
2021/05/03 06:21:32;;;;;;;80.47;60.20;;;;;;;6.99;77.92;98794.22;2246136;79;21129;-78
2021/05/03 06:24:33;;;;;;;5.80;3.53;;;;;;;8.25;71.84;98796.67;2246440;79;21301;-82
2021/05/03 06:27:34;;;;;;;8.33;5.07;;;;;;;7.56;66.18;98797.75;2246430;79;21098;-80
2021/05/03 06:30:35;;;;;;;4.73;3.93;;;;;;;6.64;68.24;98811.86;2246295;79;21107;-79
2021/05/03 06:33:36;;;;;;;5.20;3.60;;;;;;;6.24;69.18;98812.48;2246232;79;21126;-81
2021/05/03 06:36:37;;;;;;;3.80;3.50;;;;;;;5.89;70.38;98830.44;2246525;79;21103;-81
2021/05/03 06:39:38;;;;;;;4.17;3.40;;;;;;;5.58;71.50;98833.77;2246011;79;21361;-80
2021/05/03 06:42:40;;;;;;;6.90;4.10;;;;;;;5.37;72.01;98835.69;2246425;79;21270;-82
2021/05/03 06:45:41;;;;;;;5.97;3.87;;;;;;;5.22;72.61;98840.37;2246223;79;21119;-81
2021/05/03 06:48:42;;;;;;;6.43;3.83;;;;;;;5.16;73.12;98851.77;2246239;79;21401;-80
2021/05/03 06:51:44;;;;;;;6.80;4.13;;;;;;;5.09;73.20;98853.28;2246453;79;21134;-80
2021/05/03 06:54:45;;;;;;;4.93;3.83;;;;;;;4.90;73.21;98853.48;2246179;79;21110;-79
2021/05/03 06:57:47;;;;;;;5.07;4.23;;;;;;;4.94;73.39;98852.35;2246176;79;21385;-79
2021/05/03 07:00:48;;;;;;;5.87;4.30;;;;;;;5.17;73.32;98861.30;2246345;79;21388;-80
2021/05/03 07:03:49;;;;;;;6.20;4.53;;;;;;;5.30;73.80;98851.44;2246259;79;21154;-80
2021/05/03 07:06:50;;;;;;;8.73;7.13;;;;;;;5.53;73.40;98852.59;2246336;79;21075;-78
2021/05/03 07:09:51;;;;;;;7.00;5.90;;;;;;;5.58;73.40;98862.26;2246460;79;21380;-80
2021/05/03 07:12:52;;;;;;;8.17;7.20;;;;;;;5.51;73.32;98864.19;2246405;79;21108;-79
2021/05/03 07:15:53;;;;;;;9.53;5.80;;;;;;;5.42;74.00;98871.66;2246654;79;21139;-79
2021/05/03 07:18:54;;;;;;;5.60;4.77;;;;;;;5.46;73.28;98868.75;2246682;79;21358;-80
2021/05/03 07:21:55;;;;;;;8.70;5.67;;;;;;;5.40;73.13;98868.14;2253037;79;21138;-80
2021/05/03 07:24:56;;;;;;;5.10;4.13;;;;;;;5.45;73.53;98874.34;2260317;78;21181;-80
2021/05/03 07:27:57;;;;;;;7.03;5.20;;;;;;;5.50;73.22;98874.08;2260100;78;21126;-80
2021/05/03 07:30:59;;;;;;;6.87;4.80;;;;;;;5.64;72.88;98875.39;2260240;79;21114;-79
2021/05/03 07:34:00;;;;;;;6.80;6.10;;;;;;;5.75;72.81;98872.73;2260926;78;21106;-81
2021/05/03 07:37:02;;;;;;;10.33;6.77;;;;;;;5.94;73.01;98875.50;2260473;78;21341;-80
2021/05/03 07:40:04;;;;;;;7.27;5.17;;;;;;;6.29;72.55;98879.17;2259024;78;21408;-81
2021/05/03 07:43:05;;;;;;;7.47;5.43;;;;;;;6.72;72.09;98875.20;2260819;78;21154;-81
2021/05/03 07:46:06;;;;;;;6.00;4.53;;;;;;;6.94;71.45;98875.39;2260996;78;21106;-78
2021/05/03 07:49:07;;;;;;;6.13;3.83;;;;;;;6.90;70.06;98882.60;2260553;78;21329;-80
2021/05/03 07:52:08;;;;;;;4.53;3.93;;;;;;;7.11;69.99;98889.69;2249304;78;21147;-79
2021/05/03 07:55:11;;;;;;;6.37;4.93;;;;;;;7.41;70.01;98896.50;2248040;79;21119;-79
2021/05/03 07:58:12;;;;;;;5.83;3.93;;;;;;;7.85;69.46;98898.91;2247165;79;21102;-80
2021/05/03 08:01:13;;;;;;;6.00;4.50;;;;;;;8.20;68.06;98899.70;2248002;79;21122;-80
2021/05/03 08:04:14;;;;;;;4.13;3.73;;;;;;;8.18;68.08;98897.08;2248265;79;21131;-81
2021/05/03 08:07:15;;;;;;;72.00;51.20;;;;;;;7.98;67.12;98920.45;2248541;79;21107;-81
2021/05/03 08:10:16;;;;;;;82.00;58.97;;;;;;;8.14;71.18;98909.55;2248171;79;21091;-80
2021/05/03 08:13:18;;;;;;;8.23;5.87;;;;;;;8.90;68.49;98917.72;2247612;79;21102;-80
2021/05/03 08:16:21;;;;;;;7.63;5.07;;;;;;;8.57;65.36;98917.02;2257221;78;21138;-80
2021/05/03 08:19:22;;;;;;;7.73;5.40;;;;;;;8.33;66.13;98926.47;2275821;77;21051;-80
2021/05/03 08:22:23;;;;;;;6.57;5.60;;;;;;;8.21;66.32;98922.27;2261415;77;21241;-80
2021/05/03 08:25:26;;;;;;;7.80;5.37;;;;;;;8.29;66.50;98926.80;2277984;78;21253;-80
2021/05/03 08:28:27;;;;;;;8.27;5.70;;;;;;;8.33;65.12;98928.16;2279210;77;21212;-80
2021/05/03 08:31:28;;;;;;;11.20;4.47;;;;;;;8.32;66.72;98932.48;2267378;77;21238;-80
2021/05/03 08:34:29;;;;;;;7.13;4.57;;;;;;;8.13;65.02;98940.72;2273214;77;21102;-81
2021/05/03 08:37:31;;;;;;;4.30;3.67;;;;;;;7.82;66.01;98944.31;2274836;77;21122;-82
2021/05/03 08:40:32;;;;;;;5.93;3.97;;;;;;;7.62;66.88;98949.87;2278806;78;21110;-81
2021/05/03 08:43:39;;;;;;;7.00;4.10;;;;;;;7.80;66.16;98954.67;2279355;77;21164;-81
2021/05/03 08:46:40;;;;;;;5.23;3.80;;;;;;;7.84;66.23;98947.83;2266635;78;21115;-81
2021/05/03 08:49:50;;;;;;;4.83;4.20;;;;;;;7.85;65.41;98954.78;2273548;77;21095;-81
2021/05/03 08:52:54;;;;;;;7.10;4.73;;;;;;;7.74;66.22;98962.28;2267257;78;21130;-81
2021/05/03 08:55:51;;;;;;;6.53;4.50;;;;;;;7.61;66.59;98957.20;2278233;78;21110;-81
2021/05/03 08:58:52;;;;;;;5.33;4.00;;;;;;;7.76;66.58;98970.12;2268100;78;21099;-81
2021/05/03 09:01:53;;;;;;;6.50;4.20;;;;;;;7.68;66.21;98963.02;2267503;77;21071;-81
2021/05/03 09:04:57;;;;;;;65.77;46.33;;;;;;;7.72;66.20;98970.46;2273109;77;21153;-78
2021/05/03 09:07:58;;;;;;;329.27;261.95;;;;;;;7.74;70.11;98978.30;2267223;78;21102;-78
2021/05/03 09:10:59;;;;;;;16.73;12.30;;;;;;;8.70;74.60;98976.30;2268757;78;21199;-82
2021/05/03 09:14:00;;;;;;;15.50;9.13;;;;;;;9.18;63.87;98982.05;2279406;77;21106;-80
2021/05/03 09:17:02;;;;;;;5.43;3.93;;;;;;;8.72;62.62;98986.32;2277571;77;21237;-80
2021/05/03 09:20:03;;;;;;;5.60;4.10;;;;;;;8.49;64.25;98979.28;2274888;78;21114;-80
2021/05/03 09:23:07;;;;;;;5.77;4.30;;;;;;;8.08;64.37;98990.01;2274597;78;21408;-81
2021/05/03 09:26:08;;;;;;;9.43;6.30;;;;;;;7.76;65.72;98987.89;2274034;77;21241;-80
2021/05/03 09:29:09;;;;;;;7.70;6.47;;;;;;;7.81;66.58;98994.53;2274279;78;21110;-80
2021/05/03 09:32:10;;;;;;;6.90;5.83;;;;;;;7.68;65.84;98994.19;2274078;77;21118;-80
2021/05/03 09:35:11;;;;;;;9.20;5.10;;;;;;;7.61;65.34;98995.30;2274579;77;21106;-79
2021/05/03 09:38:12;;;;;;;8.03;5.60;;;;;;;7.71;65.62;98988.61;2273730;78;21118;-81
2021/05/03 09:41:13;;;;;;;8.73;4.73;;;;;;;7.91;65.88;98995.22;2274200;77;21361;-81
2021/05/03 09:44:14;;;;;;;3.87;3.50;;;;;;;8.11;65.66;99001.78;2275072;78;21558;-81
2021/05/03 09:47:15;;;;;;;6.53;4.70;;;;;;;8.18;64.21;99001.08;2274325;77;21111;-80
2021/05/03 09:50:16;;;;;;;8.47;4.97;;;;;;;8.22;64.73;99011.14;2274332;77;21107;-83
2021/05/03 09:53:17;;;;;;;5.47;4.13;;;;;;;8.18;64.92;99010.61;2273654;77;21138;-79
2021/05/03 09:56:18;;;;;;;5.90;3.27;;;;;;;8.11;62.76;99018.68;2273608;77;21071;-80
2021/05/03 09:59:19;;;;;;;9.23;4.00;;;;;;;7.86;63.52;99013.72;2275248;78;21094;-82
2021/05/03 10:02:22;;;;;;;4.87;3.80;;;;;;;7.56;65.15;99012.48;2275138;78;21122;-83
2021/05/03 10:05:23;;;;;;;4.60;4.00;;;;;;;7.49;67.25;99021.83;2273174;77;21134;-82
2021/05/03 10:08:24;;;;;;;7.27;4.23;;;;;;;7.49;67.25;99021.83;2273798;78;21133;-81
2021/05/03 10:11:29;;;;;;;10.93;5.17;;;;;;;7.41;67.44;99032.84;2274089;77;21102;-83
2021/05/03 10:14:28;;;;;;;7.40;3.70;;;;;;;7.41;68.19;99029.83;2275006;78;21094;-80
2021/05/03 10:17:29;;;;;;;6.20;3.57;;;;;;;7.51;67.91;99027.94;2283122;78;21440;-82
2021/05/03 10:20:30;;;;;;;9.77;6.60;;;;;;;7.45;68.30;99035.56;2274186;77;21392;-81
2021/05/03 10:23:31;;;;;;;7.83;5.73;;;;;;;7.56;68.20;99035.44;2293742;77;21146;-81
2021/05/03 10:26:32;;;;;;;7.87;5.90;;;;;;;7.47;67.48;99044.28;2293850;77;21101;-81
2021/05/03 10:29:40;;;;;;;4.80;4.23;;;;;;;7.27;68.31;99051.52;2293851;77;21221;-84
2021/05/03 10:32:43;;;;;;;8.50;4.27;;;;;;;7.18;68.29;99049.09;2293840;77;21103;-81
2021/05/03 10:35:44;;;;;;;6.90;3.90;;;;;;;7.02;69.54;99049.95;2293749;77;21220;-81
2021/05/03 10:38:45;;;;;;;8.77;4.20;;;;;;;6.94;69.28;99050.14;2278878;77;21111;-83
2021/05/03 10:41:46;;;;;;;5.97;4.60;;;;;;;6.99;70.26;99051.16;2289269;78;21075;-81
2021/05/03 10:44:47;;;;;;;5.83;3.87;;;;;;;7.17;69.83;99042.14;2293893;77;21284;-81
2021/05/03 10:47:52;;;;;;;10.43;4.10;;;;;;;7.55;69.26;99044.48;2279808;77;21094;-81
2021/05/03 10:50:51;;;;;;;3.60;3.30;;;;;;;7.93;69.46;99041.63;2279547;78;21232;-80
2021/05/03 10:53:52;;;;;;;4.70;3.60;;;;;;;8.13;68.00;99051.22;2274609;77;21134;-82
2021/05/03 10:56:53;;;;;;;6.90;4.40;;;;;;;8.20;67.96;99042.72;2294411;78;21090;-83
2021/05/03 10:59:55;;;;;;;5.70;3.90;;;;;;;8.29;67.77;99042.52;2279891;78;21086;-82
2021/05/03 11:02:57;;;;;;;6.63;3.87;;;;;;;8.34;66.72;99048.29;2266787;79;21158;-80
2021/05/03 11:05:58;;;;;;;6.80;4.33;;;;;;;8.25;67.36;99049.80;2275780;78;21411;-83
2021/05/03 11:09:00;;;;;;;6.47;4.60;;;;;;;7.97;67.09;99059.05;2266370;78;21111;-81
2021/05/03 11:12:01;;;;;;;5.53;4.63;;;;;;;7.62;68.27;99056.38;2275921;78;21544;-82
2021/05/03 11:15:02;;;;;;;7.97;5.40;;;;;;;7.43;68.14;99073.61;2280587;78;21097;-81
2021/05/03 11:18:03;;;;;;;7.53;5.40;;;;;;;7.37;68.85;99072.14;2270986;77;21154;-82
2021/05/03 11:21:07;;;;;;;6.67;5.23;;;;;;;7.93;68.22;99061.12;2273693;77;21411;-83
2021/05/03 11:24:07;;;;;;;10.27;6.33;;;;;;;8.51;66.46;99048.27;2267436;78;21142;-82
2021/05/03 11:27:12;;;;;;;6.23;4.90;;;;;;;8.93;66.51;99049.25;2269028;77;21093;-82
2021/05/03 11:30:14;;;;;;;6.13;4.43;;;;;;;9.36;64.75;99044.92;2278191;78;21110;-81
2021/05/03 11:33:17;;;;;;;5.47;3.87;;;;;;;9.36;63.11;99052.74;2273432;77;21135;-80
2021/05/03 11:36:22;;;;;;;9.33;6.17;;;;;;;9.17;61.94;99056.70;2279327;77;21118;-83
2021/05/03 11:39:26;;;;;;;5.72;4.10;;;;;;;8.96;63.31;99060.16;2267521;78;21077;-81
2021/05/03 11:42:57;;;;;;;4.77;3.80;;;;;;;9.00;62.74;99054.59;2273545;78;21400;-82
2021/05/03 11:45:45;;;;;;;5.07;3.80;;;;;;;8.90;62.11;99053.52;2268095;78;21110;-82
2021/05/03 11:48:46;;;;;;;4.73;3.40;;;;;;;9.03;63.90;99044.23;2279500;77;21478;-81
2021/05/03 11:51:47;;;;;;;9.00;4.07;;;;;;;9.10;63.18;99047.00;2271760;77;21106;-84
2021/05/03 11:54:48;;;;;;;4.50;3.27;;;;;;;9.36;61.42;99050.13;2267438;78;21098;-82
2021/05/03 11:57:49;;;;;;;3.93;3.53;;;;;;;9.51;60.62;99044.34;2267531;78;21095;-82
2021/05/03 12:00:51;;;;;;;5.90;2.77;;;;;;;9.49;60.43;99052.13;2273572;78;21119;-81
2021/05/03 12:03:56;;;;;;;4.40;3.27;;;;;;;9.52;58.97;99055.22;2269498;77;21138;-81
2021/05/03 12:06:55;;;;;;;7.93;4.23;;;;;;;9.47;58.99;99059.04;2279099;78;21087;-82
2021/05/03 12:09:58;;;;;;;7.17;4.87;;;;;;;9.57;57.15;99054.49;2279452;77;21095;-82
2021/05/03 12:12:59;;;;;;;6.77;3.87;;;;;;;9.80;59.26;99054.04;2273341;77;21237;-80
2021/05/03 12:16:00;;;;;;;5.20;3.13;;;;;;;9.87;58.62;99052.88;2276567;78;21260;-82
2021/05/03 12:19:02;;;;;;;4.83;3.80;;;;;;;9.83;57.69;99069.73;2260267;78;21130;-82
2021/05/03 12:22:03;;;;;;;6.10;2.93;;;;;;;9.66;57.29;99056.39;2264187;78;21142;-81
2021/05/03 12:25:06;;;;;;;4.10;3.60;;;;;;;9.64;57.68;99052.88;2271887;77;21111;-82
2021/05/03 12:28:07;;;;;;;4.97;3.50;;;;;;;9.81;57.33;99037.12;2262594;78;21106;-81
2021/05/03 12:31:10;;;;;;;3.83;3.47;;;;;;;10.21;57.95;99043.93;2260755;79;21790;-81
2021/05/03 12:34:16;;;;;;;5.20;3.50;;;;;;;10.40;56.92;99042.92;2261472;78;21357;-82
2021/05/03 12:37:14;;;;;;;6.73;4.00;;;;;;;10.30;56.42;99044.50;2261540;78;21213;-81
2021/05/03 12:40:15;;;;;;;8.03;5.07;;;;;;;10.31;57.28;99042.77;2253745;78;21091;-82
2021/05/03 12:43:17;;;;;;;6.13;3.70;;;;;;;10.25;57.17;99038.77;2247407;79;21429;-83
2021/05/03 12:46:29;;;;;;;7.53;3.70;;;;;;;10.44;57.08;99047.36;2247136;79;21108;-83
2021/05/03 12:49:22;;;;;;;5.83;4.00;;;;;;;10.44;55.66;99049.97;2246480;79;21114;-81
2021/05/03 12:52:29;;;;;;;5.05;3.87;;;;;;;10.16;56.85;99044.67;2249788;79;21130;-82
2021/05/03 12:55:28;;;;;;;75.32;57.35;;;;;;;10.10;57.37;99038.05;2261074;78;21090;-81
2021/05/03 12:58:35;;;;;;;113.93;87.73;;;;;;;10.01;60.28;99050.51;2262718;78;21104;-82
2021/05/03 13:01:49;;;;;;;4.17;3.50;;;;;;;10.58;59.41;99041.92;2247913;79;21122;-82
2021/05/03 13:04:52;;;;;;;4.50;3.67;;;;;;;10.47;55.36;99039.58;2247181;79;21138;-81
2021/05/03 13:08:01;;;;;;;6.47;4.60;;;;;;;10.25;55.59;99042.25;2247312;79;21126;-81
2021/05/03 13:30:55;;;;;;;7.33;5.17;;;;;;;10.21;56.19;99030.01;2247077;79;21225;-82
2021/05/03 13:33:56;;;;;;;7.60;5.13;;;;;;;10.12;55.75;99026.79;2247149;79;21385;-82
2021/05/03 13:36:57;;;;;;;10.77;5.67;;;;;;;10.07;56.44;99034.09;2247145;79;21095;-82
2021/05/03 13:39:58;;;;;;;10.90;6.23;;;;;;;10.07;56.16;99021.92;2247213;79;21214;-81
2021/05/03 13:43:00;;;;;;;9.50;6.30;;;;;;;10.27;56.67;99020.09;2247107;79;21110;-82
2021/05/03 13:46:01;;;;;;;7.60;5.13;;;;;;;10.22;54.84;99025.23;2247209;79;21381;-81
2021/05/03 13:49:02;;;;;;;8.57;5.13;;;;;;;10.28;53.72;99019.24;2247261;79;21094;-82
2021/05/03 13:52:03;;;;;;;7.00;4.77;;;;;;;10.25;53.37;99021.80;2247080;79;21409;-81
2021/05/03 13:55:04;;;;;;;6.13;4.83;;;;;;;10.21;53.43;99036.53;2247053;79;21126;-81
2021/05/03 13:58:05;;;;;;;6.47;3.80;;;;;;;10.39;54.55;99026.81;2247115;79;21118;-82
2021/05/03 14:01:06;;;;;;;5.60;3.55;;;;;;;10.45;52.81;99028.24;2247030;79;21103;-83
2021/05/03 14:04:07;;;;;;;4.80;3.60;;;;;;;10.44;53.69;99035.63;2247293;79;21138;-83
2021/05/03 14:07:09;;;;;;;6.50;4.23;;;;;;;10.37;51.40;99033.31;2247449;79;21224;-81
2021/05/03 14:10:10;;;;;;;7.57;4.10;;;;;;;10.46;51.69;99036.52;2247358;79;21071;-80
2021/05/03 14:13:11;;;;;;;6.90;4.37;;;;;;;10.57;52.44;99036.25;2247168;79;21104;-82
2021/05/03 14:16:13;;;;;;;6.05;3.77;;;;;;;10.53;51.27;99039.67;2247254;79;21103;-82
2021/05/03 14:19:17;;;;;;;4.45;3.35;;;;;;;10.58;52.04;99030.17;2247037;79;21139;-82
2021/05/03 14:22:17;;;;;;;7.83;3.40;;;;;;;10.58;53.52;99044.96;2247530;79;21107;-83
2021/05/03 14:25:18;;;;;;;137.65;109.30;;;;;;;10.23;54.33;99040.47;2260866;78;21114;-79
2021/05/03 14:28:23;;;;;;;7.28;4.92;;;;;;;10.82;57.01;99030.95;2262048;78;21106;-82
2021/05/03 14:31:25;;;;;;;4.53;2.83;;;;;;;11.14;53.13;99027.45;2261483;78;21110;-81
2021/05/03 14:34:29;;;;;;;2.90;2.58;;;;;;;10.75;53.14;99027.38;2260456;78;21110;-80
2021/05/03 14:37:30;;;;;;;3.83;2.40;;;;;;;10.92;53.60;99031.95;2250244;78;21127;-81
2021/05/03 14:40:31;;;;;;;3.42;3.05;;;;;;;10.58;52.42;99021.05;2246873;79;21118;-81
2021/05/03 14:43:32;;;;;;;4.28;2.98;;;;;;;10.48;53.41;99031.77;2247043;79;21130;-83
2021/05/03 14:46:35;;;;;;;16.50;8.10;;;;;;;10.81;51.44;99022.24;2247294;79;21095;-81
2021/05/03 14:49:43;;;;;;;8.47;4.27;;;;;;;10.86;52.68;99018.38;2247404;79;21103;-82
2021/05/03 14:52:54;;;;;;;5.42;3.65;;;;;;;10.73;52.72;99016.47;2248231;79;21118;-83